sensor_id;sensor_type;location;lat;lon;timestamp;temperature;humidity
21682;DHT22;11002;48.256;10.084;2024-02-28T00:02:24;7.40;63.70
21682;DHT22;11002;48.256;10.084;2024-02-28T00:04:51;7.20;64.20
21682;DHT22;11002;48.256;10.084;2024-02-28T00:07:19;7.20;63.40
21682;DHT22;11002;48.256;10.084;2024-02-28T00:09:47;7.20;63.40
21682;DHT22;11002;48.256;10.084;2024-02-28T00:12:14;7.10;63.40
21682;DHT22;11002;48.256;10.084;2024-02-28T00:14:42;7.20;63.40
21682;DHT22;11002;48.256;10.084;2024-02-28T00:17:09;7.30;63.50
21682;DHT22;11002;48.256;10.084;2024-02-28T00:19:36;7.20;63.40
21682;DHT22;11002;48.256;10.084;2024-02-28T00:22:03;7.20;63.40
21682;DHT22;11002;48.256;10.084;2024-02-28T00:24:31;7.20;63.40
21682;DHT22;11002;48.256;10.084;2024-02-28T00:26:59;7.10;63.30
21682;DHT22;11002;48.256;10.084;2024-02-28T00:29:27;7.10;63.40
21682;DHT22;11002;48.256;10.084;2024-02-28T00:31:54;7.10;63.50
21682;DHT22;11002;48.256;10.084;2024-02-28T00:34:21;7.20;63.80
21682;DHT22;11002;48.256;10.084;2024-02-28T00:36:48;7.10;63.80
21682;DHT22;11002;48.256;10.084;2024-02-28T00:39:16;7.00;64.20
21682;DHT22;11002;48.256;10.084;2024-02-28T00:41:43;7.00;64.40
21682;DHT22;11002;48.256;10.084;2024-02-28T00:44:11;7.00;64.80
21682;DHT22;11002;48.256;10.084;2024-02-28T00:46:39;7.00;64.90
21682;DHT22;11002;48.256;10.084;2024-02-28T00:49:06;7.00;65.00
21682;DHT22;11002;48.256;10.084;2024-02-28T00:51:34;7.00;65.00
21682;DHT22;11002;48.256;10.084;2024-02-28T00:54:02;7.00;65.10
21682;DHT22;11002;48.256;10.084;2024-02-28T00:56:31;7.00;65.00
21682;DHT22;11002;48.256;10.084;2024-02-28T00:58:58;6.90;64.90
21682;DHT22;11002;48.256;10.084;2024-02-28T01:01:27;6.90;65.10
21682;DHT22;11002;48.256;10.084;2024-02-28T01:03:54;6.90;65.40
21682;DHT22;11002;48.256;10.084;2024-02-28T01:06:22;6.80;65.60
21682;DHT22;11002;48.256;10.084;2024-02-28T01:08:49;6.80;65.80
21682;DHT22;11002;48.256;10.084;2024-02-28T01:11:16;6.90;66.00
21682;DHT22;11002;48.256;10.084;2024-02-28T01:13:44;6.80;66.10
21682;DHT22;11002;48.256;10.084;2024-02-28T01:16:11;7.00;66.60
21682;DHT22;11002;48.256;10.084;2024-02-28T01:18:40;6.80;66.50
21682;DHT22;11002;48.256;10.084;2024-02-28T01:21:07;6.80;66.60
21682;DHT22;11002;48.256;10.084;2024-02-28T01:23:35;6.80;66.50
21682;DHT22;11002;48.256;10.084;2024-02-28T01:26:04;6.70;66.70
21682;DHT22;11002;48.256;10.084;2024-02-28T01:28:32;6.70;67.10
21682;DHT22;11002;48.256;10.084;2024-02-28T01:30:59;6.70;67.50
21682;DHT22;11002;48.256;10.084;2024-02-28T01:33:27;6.70;67.70
21682;DHT22;11002;48.256;10.084;2024-02-28T01:35:55;6.60;67.70
21682;DHT22;11002;48.256;10.084;2024-02-28T01:38:23;6.60;67.80
21682;DHT22;11002;48.256;10.084;2024-02-28T01:40:50;6.60;68.10
21682;DHT22;11002;48.256;10.084;2024-02-28T01:43:17;6.60;68.50
21682;DHT22;11002;48.256;10.084;2024-02-28T01:45:44;6.60;68.90
21682;DHT22;11002;48.256;10.084;2024-02-28T01:48:12;6.50;69.30
21682;DHT22;11002;48.256;10.084;2024-02-28T01:50:39;6.60;69.60
21682;DHT22;11002;48.256;10.084;2024-02-28T01:53:10;6.60;70.40
21682;DHT22;11002;48.256;10.084;2024-02-28T01:55:39;6.60;69.60
21682;DHT22;11002;48.256;10.084;2024-02-28T01:58:07;6.60;69.60
21682;DHT22;11002;48.256;10.084;2024-02-28T02:00:34;6.50;69.50
21682;DHT22;11002;48.256;10.084;2024-02-28T02:03:01;6.50;69.50
21682;DHT22;11002;48.256;10.084;2024-02-28T02:05:29;6.50;69.50
21682;DHT22;11002;48.256;10.084;2024-02-28T02:07:57;6.50;69.50
21682;DHT22;11002;48.256;10.084;2024-02-28T02:10:26;6.40;69.40
21682;DHT22;11002;48.256;10.084;2024-02-28T02:12:54;6.40;69.40
21682;DHT22;11002;48.256;10.084;2024-02-28T02:15:21;6.60;69.60
21682;DHT22;11002;48.256;10.084;2024-02-28T02:17:48;6.30;69.30
21682;DHT22;11002;48.256;10.084;2024-02-28T02:20:17;6.40;69.50
21682;DHT22;11002;48.256;10.084;2024-02-28T02:22:47;6.40;69.50
21682;DHT22;11002;48.256;10.084;2024-02-28T02:25:14;6.40;69.40
21682;DHT22;11002;48.256;10.084;2024-02-28T02:27:42;6.60;69.60
21682;DHT22;11002;48.256;10.084;2024-02-28T02:30:10;6.40;69.40
21682;DHT22;11002;48.256;10.084;2024-02-28T02:32:37;6.40;69.40
21682;DHT22;11002;48.256;10.084;2024-02-28T02:35:05;6.40;69.40
21682;DHT22;11002;48.256;10.084;2024-02-28T02:37:32;6.40;69.40
21682;DHT22;11002;48.256;10.084;2024-02-28T02:40:01;6.40;69.50
21682;DHT22;11002;48.256;10.084;2024-02-28T02:42:29;6.40;70.00
21682;DHT22;11002;48.256;10.084;2024-02-28T02:44:57;6.40;70.30
21682;DHT22;11002;48.256;10.084;2024-02-28T02:47:24;6.40;70.40
21682;DHT22;11002;48.256;10.084;2024-02-28T02:49:51;6.40;70.70
21682;DHT22;11002;48.256;10.084;2024-02-28T02:52:18;6.40;70.80
21682;DHT22;11002;48.256;10.084;2024-02-28T02:54:46;6.40;70.80
21682;DHT22;11002;48.256;10.084;2024-02-28T02:57:14;6.40;70.80
21682;DHT22;11002;48.256;10.084;2024-02-28T02:59:42;6.40;70.80
21682;DHT22;11002;48.256;10.084;2024-02-28T03:02:09;6.60;71.20
21682;DHT22;11002;48.256;10.084;2024-02-28T03:04:36;6.40;71.10
21682;DHT22;11002;48.256;10.084;2024-02-28T03:07:03;6.40;71.20
21682;DHT22;11002;48.256;10.084;2024-02-28T03:09:30;6.40;71.20
21682;DHT22;11002;48.256;10.084;2024-02-28T03:11:58;6.30;71.30
21682;DHT22;11002;48.256;10.084;2024-02-28T03:14:27;6.40;71.60
21682;DHT22;11002;48.256;10.084;2024-02-28T03:16:54;6.40;71.50
21682;DHT22;11002;48.256;10.084;2024-02-28T03:19:23;6.40;71.50
21682;DHT22;11002;48.256;10.084;2024-02-28T03:21:50;6.30;71.40
21682;DHT22;11002;48.256;10.084;2024-02-28T03:24:17;6.40;71.60
21682;DHT22;11002;48.256;10.084;2024-02-28T03:26:44;6.30;71.50
21682;DHT22;11002;48.256;10.084;2024-02-28T03:29:12;6.40;71.80
21682;DHT22;11002;48.256;10.084;2024-02-28T03:31:41;6.30;72.00
21682;DHT22;11002;48.256;10.084;2024-02-28T03:34:08;6.30;72.00
21682;DHT22;11002;48.256;10.084;2024-02-28T03:36:35;6.30;72.00
21682;DHT22;11002;48.256;10.084;2024-02-28T03:39:03;6.30;72.20
21682;DHT22;11002;48.256;10.084;2024-02-28T03:41:32;6.30;72.20
21682;DHT22;11002;48.256;10.084;2024-02-28T03:43:59;6.30;72.20
21682;DHT22;11002;48.256;10.084;2024-02-28T03:46:26;6.30;72.30
21682;DHT22;11002;48.256;10.084;2024-02-28T03:48:55;6.30;72.30
21682;DHT22;11002;48.256;10.084;2024-02-28T03:51:22;6.30;72.40
21682;DHT22;11002;48.256;10.084;2024-02-28T03:53:50;6.30;72.50
21682;DHT22;11002;48.256;10.084;2024-02-28T03:56:22;6.30;72.50
21682;DHT22;11002;48.256;10.084;2024-02-28T03:58:50;6.40;72.80
21682;DHT22;11002;48.256;10.084;2024-02-28T04:01:18;6.30;72.80
21682;DHT22;11002;48.256;10.084;2024-02-28T04:03:45;6.30;72.80
21682;DHT22;11002;48.256;10.084;2024-02-28T04:06:14;6.30;72.80
21682;DHT22;11002;48.256;10.084;2024-02-28T04:08:41;6.30;73.10
21682;DHT22;11002;48.256;10.084;2024-02-28T04:11:08;6.40;73.40
21682;DHT22;11002;48.256;10.084;2024-02-28T04:13:36;6.20;73.40
21682;DHT22;11002;48.256;10.084;2024-02-28T04:16:03;6.30;73.70
21682;DHT22;11002;48.256;10.084;2024-02-28T04:18:31;6.20;74.00
21682;DHT22;11002;48.256;10.084;2024-02-28T04:20:58;6.20;74.40
21682;DHT22;11002;48.256;10.084;2024-02-28T04:23:27;6.20;74.60
21682;DHT22;11002;48.256;10.084;2024-02-28T04:25:54;6.30;75.10
21682;DHT22;11002;48.256;10.084;2024-02-28T04:28:21;6.30;75.20
21682;DHT22;11002;48.256;10.084;2024-02-28T04:30:49;6.30;75.80
21682;DHT22;11002;48.256;10.084;2024-02-28T04:33:16;6.30;75.90
21682;DHT22;11002;48.256;10.084;2024-02-28T04:35:44;6.30;75.90
21682;DHT22;11002;48.256;10.084;2024-02-28T04:38:11;6.30;75.90
21682;DHT22;11002;48.256;10.084;2024-02-28T04:40:40;6.40;76.00
21682;DHT22;11002;48.256;10.084;2024-02-28T04:43:07;6.30;75.60
21682;DHT22;11002;48.256;10.084;2024-02-28T04:45:34;6.30;75.50
21682;DHT22;11002;48.256;10.084;2024-02-28T04:48:02;6.30;75.30
21682;DHT22;11002;48.256;10.084;2024-02-28T04:50:29;6.30;75.30
21682;DHT22;11002;48.256;10.084;2024-02-28T04:52:56;6.30;75.60
21682;DHT22;11002;48.256;10.084;2024-02-28T04:55:23;6.30;75.80
21682;DHT22;11002;48.256;10.084;2024-02-28T04:57:52;6.30;75.90
21682;DHT22;11002;48.256;10.084;2024-02-28T05:00:19;6.30;75.80
21682;DHT22;11002;48.256;10.084;2024-02-28T05:02:46;6.30;75.60
21682;DHT22;11002;48.256;10.084;2024-02-28T05:05:14;6.30;75.40
21682;DHT22;11002;48.256;10.084;2024-02-28T05:07:41;6.30;75.10
21682;DHT22;11002;48.256;10.084;2024-02-28T05:10:08;6.30;75.10
21682;DHT22;11002;48.256;10.084;2024-02-28T05:12:36;6.30;74.90
21682;DHT22;11002;48.256;10.084;2024-02-28T05:15:05;6.30;74.80
21682;DHT22;11002;48.256;10.084;2024-02-28T05:17:33;6.30;75.20
21682;DHT22;11002;48.256;10.084;2024-02-28T05:20:00;6.40;75.50
21682;DHT22;11002;48.256;10.084;2024-02-28T05:22:28;6.30;75.60
21682;DHT22;11002;48.256;10.084;2024-02-28T05:24:55;6.20;75.80
21682;DHT22;11002;48.256;10.084;2024-02-28T05:27:22;6.10;75.80
21682;DHT22;11002;48.256;10.084;2024-02-28T05:29:49;6.20;75.80
21682;DHT22;11002;48.256;10.084;2024-02-28T05:32:18;6.20;75.80
21682;DHT22;11002;48.256;10.084;2024-02-28T05:34:46;6.20;75.90
21682;DHT22;11002;48.256;10.084;2024-02-28T05:37:16;6.20;75.80
21682;DHT22;11002;48.256;10.084;2024-02-28T05:39:44;6.30;75.90
21682;DHT22;11002;48.256;10.084;2024-02-28T05:42:11;6.10;75.80
21682;DHT22;11002;48.256;10.084;2024-02-28T05:44:39;6.10;75.70
21682;DHT22;11002;48.256;10.084;2024-02-28T05:47:07;6.10;75.80
21682;DHT22;11002;48.256;10.084;2024-02-28T05:49:35;6.10;75.70
21682;DHT22;11002;48.256;10.084;2024-02-28T05:52:03;6.10;75.70
21682;DHT22;11002;48.256;10.084;2024-02-28T05:54:30;6.10;75.80
21682;DHT22;11002;48.256;10.084;2024-02-28T05:56:58;6.10;75.70
21682;DHT22;11002;48.256;10.084;2024-02-28T05:59:25;6.30;75.90
21682;DHT22;11002;48.256;10.084;2024-02-28T06:01:53;6.10;75.70
21682;DHT22;11002;48.256;10.084;2024-02-28T06:04:20;6.10;75.80
21682;DHT22;11002;48.256;10.084;2024-02-28T06:06:49;6.10;75.70
21682;DHT22;11002;48.256;10.084;2024-02-28T06:09:16;6.10;75.70
21682;DHT22;11002;48.256;10.084;2024-02-28T06:11:44;6.20;75.90
21682;DHT22;11002;48.256;10.084;2024-02-28T06:14:11;6.10;75.80
21682;DHT22;11002;48.256;10.084;2024-02-28T06:16:38;6.10;75.70
21682;DHT22;11002;48.256;10.084;2024-02-28T06:19:05;6.00;75.60
21682;DHT22;11002;48.256;10.084;2024-02-28T06:21:33;6.00;75.70
21682;DHT22;11002;48.256;10.084;2024-02-28T06:24:01;6.10;75.70
21682;DHT22;11002;48.256;10.084;2024-02-28T06:26:30;6.10;75.00
21682;DHT22;11002;48.256;10.084;2024-02-28T06:28:58;6.00;74.50
21682;DHT22;11002;48.256;10.084;2024-02-28T06:31:27;6.00;74.50
21682;DHT22;11002;48.256;10.084;2024-02-28T06:33:57;6.00;74.40
21682;DHT22;11002;48.256;10.084;2024-02-28T06:36:24;6.00;74.20
21682;DHT22;11002;48.256;10.084;2024-02-28T06:38:51;6.20;74.40
21682;DHT22;11002;48.256;10.084;2024-02-28T06:41:20;6.00;73.80
21682;DHT22;11002;48.256;10.084;2024-02-28T06:43:47;6.00;73.70
21682;DHT22;11002;48.256;10.084;2024-02-28T06:46:14;6.00;73.40
21682;DHT22;11002;48.256;10.084;2024-02-28T06:48:42;6.20;73.30
21682;DHT22;11002;48.256;10.084;2024-02-28T06:51:09;6.20;73.00
21682;DHT22;11002;48.256;10.084;2024-02-28T06:53:36;6.10;72.80
21682;DHT22;11002;48.256;10.084;2024-02-28T06:56:04;6.10;72.60
21682;DHT22;11002;48.256;10.084;2024-02-28T06:58:33;6.10;72.60
21682;DHT22;11002;48.256;10.084;2024-02-28T07:01:00;6.10;72.50
21682;DHT22;11002;48.256;10.084;2024-02-28T07:03:27;6.10;72.30
21682;DHT22;11002;48.256;10.084;2024-02-28T07:05:55;6.20;71.90
21682;DHT22;11002;48.256;10.084;2024-02-28T07:08:22;6.20;71.20
21682;DHT22;11002;48.256;10.084;2024-02-28T07:10:49;6.20;70.60
21682;DHT22;11002;48.256;10.084;2024-02-28T07:13:19;6.20;70.70
21682;DHT22;11002;48.256;10.084;2024-02-28T07:15:48;6.20;69.90
21682;DHT22;11002;48.256;10.084;2024-02-28T07:18:16;6.20;69.30
21682;DHT22;11002;48.256;10.084;2024-02-28T07:20:43;6.20;69.20
21682;DHT22;11002;48.256;10.084;2024-02-28T07:23:11;6.20;69.20
21682;DHT22;11002;48.256;10.084;2024-02-28T07:25:39;6.30;69.30
21682;DHT22;11002;48.256;10.084;2024-02-28T07:28:06;6.40;69.40
21682;DHT22;11002;48.256;10.084;2024-02-28T07:30:33;6.40;68.90
21682;DHT22;11002;48.256;10.084;2024-02-28T07:33:04;6.50;69.10
21682;DHT22;11002;48.256;10.084;2024-02-28T07:35:32;6.40;68.90
21682;DHT22;11002;48.256;10.084;2024-02-28T07:37:59;6.50;68.10
21682;DHT22;11002;48.256;10.084;2024-02-28T07:40:26;6.50;66.10
21682;DHT22;11002;48.256;10.084;2024-02-28T07:42:53;6.50;66.00
21682;DHT22;11002;48.256;10.084;2024-02-28T07:45:21;6.50;65.80
21682;DHT22;11002;48.256;10.084;2024-02-28T07:47:48;6.60;65.30
21682;DHT22;11002;48.256;10.084;2024-02-28T07:50:17;6.90;64.80
21682;DHT22;11002;48.256;10.084;2024-02-28T07:52:44;6.70;63.00
21682;DHT22;11002;48.256;10.084;2024-02-28T07:55:11;6.70;63.00
21682;DHT22;11002;48.256;10.084;2024-02-28T07:57:38;6.70;62.90
21682;DHT22;11002;48.256;10.084;2024-02-28T08:00:07;6.70;63.00
21682;DHT22;11002;48.256;10.084;2024-02-28T08:02:40;6.80;63.10
21682;DHT22;11002;48.256;10.084;2024-02-28T08:05:07;6.80;62.70
21682;DHT22;11002;48.256;10.084;2024-02-28T08:07:37;6.80;61.20
21682;DHT22;11002;48.256;10.084;2024-02-28T08:10:05;6.80;61.80
21682;DHT22;11002;48.256;10.084;2024-02-28T08:12:32;6.80;61.90
21682;DHT22;11002;48.256;10.084;2024-02-28T08:15:00;6.80;61.90
21682;DHT22;11002;48.256;10.084;2024-02-28T08:17:27;6.80;62.00
21682;DHT22;11002;48.256;10.084;2024-02-28T08:19:55;6.80;61.70
21682;DHT22;11002;48.256;10.084;2024-02-28T08:22:22;6.80;61.50
21682;DHT22;11002;48.256;10.084;2024-02-28T08:24:52;6.80;61.40
21682;DHT22;11002;48.256;10.084;2024-02-28T08:27:19;6.90;61.50
21682;DHT22;11002;48.256;10.084;2024-02-28T08:29:49;6.80;61.00
21682;DHT22;11002;48.256;10.084;2024-02-28T08:32:17;6.80;60.60
21682;DHT22;11002;48.256;10.084;2024-02-28T08:34:44;6.90;60.40
21682;DHT22;11002;48.256;10.084;2024-02-28T08:37:12;6.80;60.40
21682;DHT22;11002;48.256;10.084;2024-02-28T08:39:40;6.80;60.50
21682;DHT22;11002;48.256;10.084;2024-02-28T08:42:08;6.80;61.00
21682;DHT22;11002;48.256;10.084;2024-02-28T08:44:36;6.80;61.30
21682;DHT22;11002;48.256;10.084;2024-02-28T08:47:04;6.90;61.30
21682;DHT22;11002;48.256;10.084;2024-02-28T08:49:31;6.80;61.00
21682;DHT22;11002;48.256;10.084;2024-02-28T08:51:58;6.60;60.80
21682;DHT22;11002;48.256;10.084;2024-02-28T08:54:26;6.90;61.40
21682;DHT22;11002;48.256;10.084;2024-02-28T08:56:53;6.60;61.30
21682;DHT22;11002;48.256;10.084;2024-02-28T08:59:22;6.80;61.50
21682;DHT22;11002;48.256;10.084;2024-02-28T09:01:49;7.00;61.70
21682;DHT22;11002;48.256;10.084;2024-02-28T09:04:16;6.80;61.20
21682;DHT22;11002;48.256;10.084;2024-02-28T09:06:43;6.70;60.60
21682;DHT22;11002;48.256;10.084;2024-02-28T09:09:11;6.70;60.70
21682;DHT22;11002;48.256;10.084;2024-02-28T09:11:38;6.70;61.00
21682;DHT22;11002;48.256;10.084;2024-02-28T09:14:05;6.70;60.90
21682;DHT22;11002;48.256;10.084;2024-02-28T09:16:34;6.70;61.10
21682;DHT22;11002;48.256;10.084;2024-02-28T09:19:02;6.70;61.30
21682;DHT22;11002;48.256;10.084;2024-02-28T09:21:29;6.90;61.30
21682;DHT22;11002;48.256;10.084;2024-02-28T09:23:57;6.70;61.70
21682;DHT22;11002;48.256;10.084;2024-02-28T09:26:24;6.80;60.90
21682;DHT22;11002;48.256;10.084;2024-02-28T09:28:51;6.80;60.90
21682;DHT22;11002;48.256;10.084;2024-02-28T09:31:19;6.80;60.40
21682;DHT22;11002;48.256;10.084;2024-02-28T09:33:47;6.90;60.90
21682;DHT22;11002;48.256;10.084;2024-02-28T09:36:15;6.80;61.20
21682;DHT22;11002;48.256;10.084;2024-02-28T09:38:42;6.90;60.80
21682;DHT22;11002;48.256;10.084;2024-02-28T09:41:14;6.90;60.10
21682;DHT22;11002;48.256;10.084;2024-02-28T09:43:42;7.00;59.80
21682;DHT22;11002;48.256;10.084;2024-02-28T09:46:10;7.00;59.60
21682;DHT22;11002;48.256;10.084;2024-02-28T09:48:38;7.50;59.70
21682;DHT22;11002;48.256;10.084;2024-02-28T09:51:08;7.50;58.60
21682;DHT22;11002;48.256;10.084;2024-02-28T09:53:37;7.90;57.60
21682;DHT22;11002;48.256;10.084;2024-02-28T09:56:06;8.20;56.50
21682;DHT22;11002;48.256;10.084;2024-02-28T09:58:33;8.50;55.30
21682;DHT22;11002;48.256;10.084;2024-02-28T10:01:02;8.50;52.00
21682;DHT22;11002;48.256;10.084;2024-02-28T10:03:31;8.60;52.00
21682;DHT22;11002;48.256;10.084;2024-02-28T10:05:59;8.70;52.10
21682;DHT22;11002;48.256;10.084;2024-02-28T10:08:27;8.70;52.10
21682;DHT22;11002;48.256;10.084;2024-02-28T10:10:55;8.60;52.00
21682;DHT22;11002;48.256;10.084;2024-02-28T10:13:23;8.50;51.90
21682;DHT22;11002;48.256;10.084;2024-02-28T10:15:50;8.10;51.60
21682;DHT22;11002;48.256;10.084;2024-02-28T10:18:18;8.20;51.70
21682;DHT22;11002;48.256;10.084;2024-02-28T10:20:45;8.20;51.70
21682;DHT22;11002;48.256;10.084;2024-02-28T10:23:12;8.10;51.60
21682;DHT22;11002;48.256;10.084;2024-02-28T10:25:44;8.30;51.70
21682;DHT22;11002;48.256;10.084;2024-02-28T10:28:12;8.30;51.70
21682;DHT22;11002;48.256;10.084;2024-02-28T10:30:40;8.20;51.70
21682;DHT22;11002;48.256;10.084;2024-02-28T10:33:12;8.40;51.90
21682;DHT22;11002;48.256;10.084;2024-02-28T10:35:41;8.40;51.80
21682;DHT22;11002;48.256;10.084;2024-02-28T10:38:10;8.30;51.80
21682;DHT22;11002;48.256;10.084;2024-02-28T10:40:38;8.40;51.90
21682;DHT22;11002;48.256;10.084;2024-02-28T10:43:08;8.50;51.90
21682;DHT22;11002;48.256;10.084;2024-02-28T10:45:36;8.40;51.80
21682;DHT22;11002;48.256;10.084;2024-02-28T10:48:05;8.40;51.80
21682;DHT22;11002;48.256;10.084;2024-02-28T10:50:33;8.30;52.40
21682;DHT22;11002;48.256;10.084;2024-02-28T10:53:01;8.30;51.80
21682;DHT22;11002;48.256;10.084;2024-02-28T10:55:33;8.30;51.80
21682;DHT22;11002;48.256;10.084;2024-02-28T10:58:08;8.00;51.50
21682;DHT22;11002;48.256;10.084;2024-02-28T11:00:37;7.90;51.70
21682;DHT22;11002;48.256;10.084;2024-02-28T11:03:05;7.90;52.60
21682;DHT22;11002;48.256;10.084;2024-02-28T11:05:36;7.90;52.80
21682;DHT22;11002;48.256;10.084;2024-02-28T11:08:07;7.90;52.80
21682;DHT22;11002;48.256;10.084;2024-02-28T11:10:41;8.30;52.60
21682;DHT22;11002;48.256;10.084;2024-02-28T11:13:21;8.30;52.10
21682;DHT22;11002;48.256;10.084;2024-02-28T11:15:49;8.30;51.80
21682;DHT22;11002;48.256;10.084;2024-02-28T11:18:16;8.50;51.90
21682;DHT22;11002;48.256;10.084;2024-02-28T11:20:43;8.50;51.90
21682;DHT22;11002;48.256;10.084;2024-02-28T11:23:12;8.40;51.80
21682;DHT22;11002;48.256;10.084;2024-02-28T11:25:40;8.70;52.10
21682;DHT22;11002;48.256;10.084;2024-02-28T11:28:07;8.60;52.00
21682;DHT22;11002;48.256;10.084;2024-02-28T11:30:36;8.90;52.30
21682;DHT22;11002;48.256;10.084;2024-02-28T11:33:04;9.20;51.90
21682;DHT22;11002;48.256;10.084;2024-02-28T11:35:34;9.50;48.40
21682;DHT22;11002;48.256;10.084;2024-02-28T11:38:01;9.80;46.70
21682;DHT22;11002;48.256;10.084;2024-02-28T11:40:28;10.10;46.00
21682;DHT22;11002;48.256;10.084;2024-02-28T11:42:56;10.40;44.70
21682;DHT22;11002;48.256;10.084;2024-02-28T11:45:25;10.50;43.30
21682;DHT22;11002;48.256;10.084;2024-02-28T11:47:54;10.50;43.10
21682;DHT22;11002;48.256;10.084;2024-02-28T11:50:21;10.50;43.70
21682;DHT22;11002;48.256;10.084;2024-02-28T11:52:49;10.50;43.10
21682;DHT22;11002;48.256;10.084;2024-02-28T11:55:17;10.70;42.40
21682;DHT22;11002;48.256;10.084;2024-02-28T11:57:44;10.80;42.50
21682;DHT22;11002;48.256;10.084;2024-02-28T12:00:13;11.10;41.90
21682;DHT22;11002;48.256;10.084;2024-02-28T12:02:40;11.10;40.50
21682;DHT22;11002;48.256;10.084;2024-02-28T12:05:09;11.30;40.70
21682;DHT22;11002;48.256;10.084;2024-02-28T12:07:37;11.60;41.00
21682;DHT22;11002;48.256;10.084;2024-02-28T12:10:05;11.60;39.60
21682;DHT22;11002;48.256;10.084;2024-02-28T12:12:34;11.80;41.00
21682;DHT22;11002;48.256;10.084;2024-02-28T12:15:02;11.70;38.40
21682;DHT22;11002;48.256;10.084;2024-02-28T12:17:31;11.40;40.10
21682;DHT22;11002;48.256;10.084;2024-02-28T12:19:59;11.30;40.70
21682;DHT22;11002;48.256;10.084;2024-02-28T12:22:28;11.30;40.70
21682;DHT22;11002;48.256;10.084;2024-02-28T12:24:55;11.20;40.60
21682;DHT22;11002;48.256;10.084;2024-02-28T12:27:23;10.90;40.30
21682;DHT22;11002;48.256;10.084;2024-02-28T12:29:51;10.70;40.20
21682;DHT22;11002;48.256;10.084;2024-02-28T12:32:18;10.60;41.30
21682;DHT22;11002;48.256;10.084;2024-02-28T12:34:45;11.00;42.90
21682;DHT22;11002;48.256;10.084;2024-02-28T12:37:12;11.80;41.10
21682;DHT22;11002;48.256;10.084;2024-02-28T12:39:41;12.50;35.90
21682;DHT22;11002;48.256;10.084;2024-02-28T12:42:08;13.20;35.80
21682;DHT22;11002;48.256;10.084;2024-02-28T12:44:36;13.80;33.00
21682;DHT22;11002;48.256;10.084;2024-02-28T12:47:04;14.00;30.00
21682;DHT22;11002;48.256;10.084;2024-02-28T12:49:32;14.10;30.00
21682;DHT22;11002;48.256;10.084;2024-02-28T12:51:59;15.00;28.90
21682;DHT22;11002;48.256;10.084;2024-02-28T12:54:26;15.90;28.00
21682;DHT22;11002;48.256;10.084;2024-02-28T12:56:55;15.90;27.10
21682;DHT22;11002;48.256;10.084;2024-02-28T12:59:22;15.40;27.30
21682;DHT22;11002;48.256;10.084;2024-02-28T13:01:49;15.00;29.20
21682;DHT22;11002;48.256;10.084;2024-02-28T13:04:16;14.80;28.90
21682;DHT22;11002;48.256;10.084;2024-02-28T13:06:44;14.50;29.40
21682;DHT22;11002;48.256;10.084;2024-02-28T13:09:11;14.20;30.00
21682;DHT22;11002;48.256;10.084;2024-02-28T13:11:39;13.70;29.80
21682;DHT22;11002;48.256;10.084;2024-02-28T13:14:08;13.40;29.80
21682;DHT22;11002;48.256;10.084;2024-02-28T13:16:36;13.10;30.50
21682;DHT22;11002;48.256;10.084;2024-02-28T13:19:04;12.70;31.40
21682;DHT22;11002;48.256;10.084;2024-02-28T13:21:32;12.40;33.70
21682;DHT22;11002;48.256;10.084;2024-02-28T13:24:00;12.20;33.80
21682;DHT22;11002;48.256;10.084;2024-02-28T13:26:28;12.00;33.80
21682;DHT22;11002;48.256;10.084;2024-02-28T13:28:56;11.80;34.60
21682;DHT22;11002;48.256;10.084;2024-02-28T13:31:25;11.70;34.50
21682;DHT22;11002;48.256;10.084;2024-02-28T13:33:52;11.50;35.10
21682;DHT22;11002;48.256;10.084;2024-02-28T13:36:19;11.30;36.60
21682;DHT22;11002;48.256;10.084;2024-02-28T13:38:47;11.00;36.90
21682;DHT22;11002;48.256;10.084;2024-02-28T13:41:14;10.70;38.30
21682;DHT22;11002;48.256;10.084;2024-02-28T13:43:42;10.60;38.60
21682;DHT22;11002;48.256;10.084;2024-02-28T13:46:09;10.60;38.30
21682;DHT22;11002;48.256;10.084;2024-02-28T13:48:38;10.40;40.00
21682;DHT22;11002;48.256;10.084;2024-02-28T13:51:05;10.20;39.70
21682;DHT22;11002;48.256;10.084;2024-02-28T13:53:32;10.10;39.70
21682;DHT22;11002;48.256;10.084;2024-02-28T13:56:00;10.00;39.60
21682;DHT22;11002;48.256;10.084;2024-02-28T13:58:27;9.90;40.40
21682;DHT22;11002;48.256;10.084;2024-02-28T14:00:54;9.80;41.50
21682;DHT22;11002;48.256;10.084;2024-02-28T14:03:22;9.80;42.20
21682;DHT22;11002;48.256;10.084;2024-02-28T14:05:52;9.90;41.80
21682;DHT22;11002;48.256;10.084;2024-02-28T14:08:20;9.90;41.50
21682;DHT22;11002;48.256;10.084;2024-02-28T14:10:47;9.80;41.90
21682;DHT22;11002;48.256;10.084;2024-02-28T14:13:14;9.60;41.80
21682;DHT22;11002;48.256;10.084;2024-02-28T14:15:44;9.50;42.90
21682;DHT22;11002;48.256;10.084;2024-02-28T14:18:12;9.60;43.40
21682;DHT22;11002;48.256;10.084;2024-02-28T14:20:40;9.70;43.40
21682;DHT22;11002;48.256;10.084;2024-02-28T14:23:09;9.60;43.20
21682;DHT22;11002;48.256;10.084;2024-02-28T14:25:36;9.70;43.40
21682;DHT22;11002;48.256;10.084;2024-02-28T14:28:04;9.70;43.60
21682;DHT22;11002;48.256;10.084;2024-02-28T14:30:31;9.60;43.40
21682;DHT22;11002;48.256;10.084;2024-02-28T14:32:59;9.60;43.80
21682;DHT22;11002;48.256;10.084;2024-02-28T14:35:26;9.50;44.10
21682;DHT22;11002;48.256;10.084;2024-02-28T14:37:54;9.50;44.80
21682;DHT22;11002;48.256;10.084;2024-02-28T14:40:22;9.50;44.90
21682;DHT22;11002;48.256;10.084;2024-02-28T14:42:51;9.50;45.00
21682;DHT22;11002;48.256;10.084;2024-02-28T14:45:19;9.40;44.30
21682;DHT22;11002;48.256;10.084;2024-02-28T14:47:46;9.40;44.70
21682;DHT22;11002;48.256;10.084;2024-02-28T14:50:13;9.20;45.10
21682;DHT22;11002;48.256;10.084;2024-02-28T14:52:41;9.10;46.10
21682;DHT22;11002;48.256;10.084;2024-02-28T14:55:09;9.10;46.20
21682;DHT22;11002;48.256;10.084;2024-02-28T14:57:39;9.20;46.20
21682;DHT22;11002;48.256;10.084;2024-02-28T15:00:09;9.00;46.10
21682;DHT22;11002;48.256;10.084;2024-02-28T15:02:39;8.80;46.10
21682;DHT22;11002;48.256;10.084;2024-02-28T15:05:07;8.80;47.10
21682;DHT22;11002;48.256;10.084;2024-02-28T15:07:35;8.90;47.50
21682;DHT22;11002;48.256;10.084;2024-02-28T15:10:04;8.70;47.80
21682;DHT22;11002;48.256;10.084;2024-02-28T15:12:33;8.50;48.20
21682;DHT22;11002;48.256;10.084;2024-02-28T15:15:03;8.50;48.30
21682;DHT22;11002;48.256;10.084;2024-02-28T15:17:31;8.40;48.60
21682;DHT22;11002;48.256;10.084;2024-02-28T15:19:58;8.30;48.60
21682;DHT22;11002;48.256;10.084;2024-02-28T15:22:28;8.30;48.90
21682;DHT22;11002;48.256;10.084;2024-02-28T15:24:55;8.20;49.00
21682;DHT22;11002;48.256;10.084;2024-02-28T15:27:23;8.10;48.80
21682;DHT22;11002;48.256;10.084;2024-02-28T15:29:50;8.20;49.40
21682;DHT22;11002;48.256;10.084;2024-02-28T15:32:20;8.10;49.50